Time;durP1;ratioP1;P1;durP2;ratioP2;P2;SDS_P1;SDS_P2;PMS_P1;PMS_P2;Temp;Humidity;BMP_temperature;BMP_pressure;BME280_temperature;BME280_humidity;BME280_pressure;Samples;Min_cycle;Max_cycle;Signal;HPM_P1;HPM_P2
2022/03/13 00:00:49;;;;;;;5.20;4.10;;;;;;;21.22;33.55;101670.53;5010622;28;20029;-69
2022/03/13 00:03:17;;;;;;;5.10;3.65;;;;;;;21.26;33.59;101676.34;5002811;28;20037;-69
2022/03/13 00:05:45;;;;;;;5.07;4.22;;;;;;;21.24;33.50;101668.56;5007544;28;20164;-68
2022/03/13 00:08:16;;;;;;;7.65;4.35;;;;;;;21.20;33.63;101667.25;5008859;28;20148;-69
2022/03/13 00:10:44;;;;;;;5.20;3.85;;;;;;;21.18;33.56;101671.84;5008456;28;20037;-69
2022/03/13 00:13:14;;;;;;;5.18;4.10;;;;;;;21.24;33.47;101673.88;5010454;28;20033;-69
2022/03/13 00:15:40;;;;;;;5.45;4.20;;;;;;;21.19;33.68;101680.66;5013057;28;20056;-69
2022/03/13 00:18:08;;;;;;;4.53;4.00;;;;;;;21.11;33.50;101668.22;5012785;28;20141;-68
2022/03/13 00:20:34;;;;;;;5.07;3.83;;;;;;;21.16;33.56;101676.50;5009984;28;20037;-68
2022/03/13 00:22:59;;;;;;;5.15;3.88;;;;;;;21.17;33.64;101674.66;5015537;28;20087;-69
2022/03/13 00:25:26;;;;;;;5.30;3.90;;;;;;;21.12;33.74;101669.88;5015762;28;20052;-68
2022/03/13 00:27:52;;;;;;;4.85;3.90;;;;;;;21.16;33.56;101675.66;5008796;28;20041;-69
2022/03/13 00:30:17;;;;;;;4.70;3.78;;;;;;;21.13;33.54;101668.88;5008307;28;20804;-69
2022/03/13 00:32:43;;;;;;;5.53;4.18;;;;;;;21.03;33.50;101661.13;5009243;28;20370;-69
2022/03/13 00:35:11;;;;;;;6.03;4.05;;;;;;;21.06;33.66;101665.25;5011325;28;20042;-68
2022/03/13 00:37:36;;;;;;;6.65;4.22;;;;;;;21.02;33.61;101656.84;5008143;28;20041;-67
2022/03/13 00:40:03;;;;;;;4.85;3.70;;;;;;;21.00;33.59;101650.03;5012524;28;20420;-68
2022/03/13 00:42:29;;;;;;;5.55;4.30;;;;;;;21.03;33.67;101649.72;5007642;28;20096;-69
2022/03/13 00:44:55;;;;;;;5.70;4.05;;;;;;;21.09;33.42;101659.63;5013768;28;20041;-69
2022/03/13 00:47:21;;;;;;;5.57;4.13;;;;;;;21.07;33.53;101661.63;5009479;28;20048;-69
2022/03/13 00:49:48;;;;;;;6.53;4.05;;;;;;;21.06;33.59;101660.78;5012360;28;20038;-68
2022/03/13 00:52:14;;;;;;;4.22;3.63;;;;;;;21.05;33.44;101655.66;5008876;28;20049;-69
2022/03/13 00:54:40;;;;;;;5.57;4.00;;;;;;;21.00;33.37;101645.56;5011386;28;20352;-69
2022/03/13 00:57:06;;;;;;;5.05;3.72;;;;;;;20.97;33.59;101640.59;5009703;28;20033;-69
2022/03/13 00:59:31;;;;;;;6.15;4.63;;;;;;;21.03;33.51;101658.50;5014478;28;20054;-68
2022/03/13 01:01:57;;;;;;;5.90;4.07;;;;;;;21.03;33.49;101661.13;5012222;28;20032;-69
2022/03/13 01:04:25;;;;;;;5.40;4.53;;;;;;;20.95;33.40;101641.78;5009821;28;20041;-68
2022/03/13 01:06:51;;;;;;;5.65;4.57;;;;;;;20.98;33.47;101650.19;5010390;28;20045;-69
2022/03/13 01:09:17;;;;;;;5.15;3.85;;;;;;;20.98;33.81;101646.72;5008864;28;20661;-69
2022/03/13 01:11:43;;;;;;;6.22;4.55;;;;;;;20.97;33.51;101650.38;5008871;28;20045;-69
2022/03/13 01:14:09;;;;;;;5.07;4.18;;;;;;;20.97;33.55;101655.66;5014075;28;20065;-69
2022/03/13 01:16:38;;;;;;;5.18;4.32;;;;;;;20.94;33.57;101653.34;5010382;28;20722;-68
2022/03/13 01:19:04;;;;;;;5.22;4.15;;;;;;;20.92;33.57;101656.16;5012151;28;20034;-69
2022/03/13 01:21:32;;;;;;;5.28;4.25;;;;;;;20.90;33.60;101652.03;5011080;28;20109;-69
2022/03/13 01:23:58;;;;;;;5.88;4.30;;;;;;;20.92;33.58;101658.00;5013152;28;20064;-69
2022/03/13 01:26:24;;;;;;;5.72;4.20;;;;;;;20.94;33.46;101653.34;5007783;28;20161;-69
2022/03/13 01:28:53;;;;;;;4.97;3.92;;;;;;;20.85;33.61;101641.97;5009666;28;20049;-69
2022/03/13 01:31:29;;;;;;;4.93;3.80;;;;;;;20.89;33.70;101642.44;5009487;28;20041;-67
2022/03/13 01:33:57;;;;;;;6.07;3.72;;;;;;;20.84;33.45;101645.59;5010417;28;20049;-69
2022/03/13 01:36:23;;;;;;;5.00;3.83;;;;;;;20.78;33.40;101625.91;5011075;28;20700;-69
2022/03/13 01:38:53;;;;;;;5.38;4.22;;;;;;;20.85;33.59;101641.13;5011217;28;20137;-69
2022/03/13 01:41:19;;;;;;;5.50;4.30;;;;;;;20.71;33.53;101618.81;5008346;28;20806;-69
2022/03/13 01:43:45;;;;;;;4.85;3.95;;;;;;;20.81;33.83;101640.63;5011810;28;20072;-69
2022/03/13 01:46:11;;;;;;;5.88;4.55;;;;;;;20.67;33.56;101617.50;5011103;28;20145;-69
2022/03/13 01:48:55;;;;;;;5.55;4.15;;;;;;;20.78;33.64;101631.19;5009036;28;20742;-69
2022/03/13 01:51:20;;;;;;;6.82;4.32;;;;;;;20.83;33.51;101638.66;5010442;28;20076;-69
2022/03/13 01:53:51;;;;;;;5.65;4.50;;;;;;;20.84;33.59;101635.00;5008769;28;20640;-69
2022/03/13 01:56:17;;;;;;;6.05;4.38;;;;;;;20.79;33.61;101629.38;5013022;28;20395;-69
2022/03/13 01:58:42;;;;;;;6.07;4.50;;;;;;;20.78;33.63;101635.66;5010735;28;20030;-69
2022/03/13 02:01:08;;;;;;;6.10;4.03;;;;;;;20.72;33.56;101625.75;5010008;28;20804;-69
2022/03/13 02:03:34;;;;;;;5.20;4.57;;;;;;;20.72;33.68;101623.09;5006037;28;20609;-69
2022/03/13 02:05:59;;;;;;;5.65;4.40;;;;;;;20.70;33.64;101610.03;5010787;28;20052;-69
2022/03/13 02:08:25;;;;;;;5.72;4.32;;;;;;;20.64;33.54;101596.63;5012581;28;20050;-67
2022/03/13 02:10:50;;;;;;;4.90;4.20;;;;;;;20.70;33.68;101610.03;5006589;28;20054;-68
2022/03/13 02:13:19;;;;;;;5.13;4.13;;;;;;;20.72;33.60;101613.34;5015734;28;20052;-68
2022/03/13 02:15:45;;;;;;;5.68;4.07;;;;;;;20.71;33.76;101614.34;5007046;28;20124;-68
2022/03/13 02:18:11;;;;;;;6.13;4.60;;;;;;;20.68;33.65;101612.03;5009668;28;20556;-68
2022/03/13 02:20:43;;;;;;;4.85;4.22;;;;;;;20.75;33.43;101617.47;5010577;28;20839;-67
2022/03/13 02:23:19;;;;;;;7.30;4.95;;;;;;;20.70;33.61;101617.97;5013276;28;20510;-68
2022/03/13 02:25:48;;;;;;;4.93;3.90;;;;;;;20.70;33.55;101614.50;5008990;28;20524;-68
2022/03/13 02:28:14;;;;;;;6.95;4.53;;;;;;;20.70;33.64;101620.63;5018872;28;20507;-68
2022/03/13 02:30:40;;;;;;;5.85;4.40;;;;;;;20.70;33.61;101623.28;5012571;28;20046;-68
2022/03/13 02:33:05;;;;;;;5.35;4.22;;;;;;;20.68;33.63;101616.50;5015301;28;20092;-66
2022/03/13 02:35:31;;;;;;;5.82;4.65;;;;;;;20.64;33.53;101610.69;5011608;28;20617;-68
2022/03/13 02:37:57;;;;;;;5.53;4.57;;;;;;;20.59;33.65;101597.13;5014503;28;20040;-66
2022/03/13 02:40:24;;;;;;;5.97;4.70;;;;;;;20.65;33.78;101616.84;5012919;28;20041;-68
2022/03/13 02:42:51;;;;;;;5.22;4.18;;;;;;;20.66;33.70;101611.38;5013490;28;20606;-68
2022/03/13 02:45:26;;;;;;;6.18;4.35;;;;;;;20.66;33.59;101615.84;5014510;28;20030;-67
2022/03/13 02:47:51;;;;;;;5.72;4.30;;;;;;;20.62;33.68;101607.38;5012364;28;20702;-67
2022/03/13 02:50:17;;;;;;;4.72;4.20;;;;;;;20.62;33.68;101607.38;5013312;28;20048;-68
2022/03/13 02:52:43;;;;;;;6.32;4.85;;;;;;;20.56;33.63;101600.13;5010772;28;20088;-67
2022/03/13 02:55:09;;;;;;;5.18;4.32;;;;;;;20.63;33.62;101608.19;5016128;28;20037;-68
2022/03/13 02:57:35;;;;;;;5.43;4.28;;;;;;;20.62;33.65;101610.03;5012854;28;20045;-67
2022/03/13 03:00:01;;;;;;;5.50;4.10;;;;;;;20.58;33.72;101602.59;5009978;28;20076;-68
2022/03/13 03:02:26;;;;;;;6.00;4.50;;;;;;;20.57;33.64;101601.75;5010434;28;20121;-68
2022/03/13 03:04:54;;;;;;;7.88;4.80;;;;;;;20.58;33.68;101598.13;5009369;28;20044;-68
2022/03/13 03:07:20;;;;;;;5.25;4.40;;;;;;;20.55;33.62;101600.28;5012563;28;20038;-68
2022/03/13 03:09:46;;;;;;;5.80;4.30;;;;;;;20.51;33.67;101590.03;5013194;28;20037;-68
2022/03/13 03:12:11;;;;;;;6.30;4.32;;;;;;;20.55;33.76;101598.47;5011161;28;20139;-68
2022/03/13 03:14:37;;;;;;;5.93;4.53;;;;;;;20.56;33.66;101597.47;5011913;28;20045;-68
2022/03/13 03:17:04;;;;;;;5.82;4.38;;;;;;;20.56;33.61;101600.13;5013521;28;20053;-68
2022/03/13 03:19:30;;;;;;;7.65;4.35;;;;;;;20.52;33.67;101594.34;5013108;28;20504;-68
2022/03/13 03:21:56;;;;;;;5.72;4.07;;;;;;;20.46;33.48;101587.03;5009588;28;20038;-68
2022/03/13 03:24:24;;;;;;;5.63;4.78;;;;;;;20.42;33.82;101582.25;5013842;28;20048;-68
2022/03/13 03:26:53;;;;;;;5.50;4.05;;;;;;;20.37;33.91;101577.44;5013544;28;20231;-68
2022/03/13 03:29:19;;;;;;;5.97;4.30;;;;;;;20.51;33.90;101600.63;5013902;28;20037;-67
2022/03/13 03:31:49;;;;;;;6.00;4.25;;;;;;;20.47;33.69;101593.19;5014344;28;20140;-68
2022/03/13 03:34:17;;;;;;;6.88;4.63;;;;;;;20.45;33.76;101592.50;5012390;28;20144;-68
2022/03/13 03:36:49;;;;;;;5.55;4.22;;;;;;;20.45;33.64;101592.50;5012667;28;20380;-68
2022/03/13 03:39:16;;;;;;;5.32;4.30;;;;;;;20.46;33.69;101591.50;5008661;28;20045;-68
2022/03/13 03:41:46;;;;;;;5.10;4.20;;;;;;;20.48;33.78;101590.38;5012217;28;20172;-68
2022/03/13 03:44:12;;;;;;;;;;;;;;;20.44;33.74;101578.44;5010078;28;20258;-68
2022/03/13 03:46:40;;;;;;;6.38;4.50;;;;;;;20.42;33.66;101582.25;5013286;28;20360;-67
2022/03/13 03:49:07;;;;;;;5.72;4.38;;;;;;;20.34;33.80;101563.72;5008844;28;20064;-68
2022/03/13 03:51:33;;;;;;;5.47;4.35;;;;;;;20.34;33.62;101572.47;5010023;28;20057;-67
2022/03/13 03:54:00;;;;;;;6.03;4.80;;;;;;;20.43;33.75;101587.38;5010565;28;20067;-67
2022/03/13 03:56:25;;;;;;;6.07;4.30;;;;;;;20.34;33.87;101576.94;5014409;28;20077;-68
2022/03/13 03:58:51;;;;;;;5.88;4.55;;;;;;;20.42;33.71;101587.53;5014604;28;20136;-68
2022/03/13 04:01:17;;;;;;;5.72;4.70;;;;;;;20.40;33.75;101590.31;5015780;28;20033;-68
2022/03/13 04:03:42;;;;;;;6.32;4.70;;;;;;;20.37;33.84;101580.06;5015282;28;20660;-68
2022/03/13 04:06:08;;;;;;;6.18;4.25;;;;;;;20.41;33.68;101580.59;5013717;28;20042;-68
2022/03/13 04:08:36;;;;;;;6.05;4.22;;;;;;;20.35;33.85;101574.13;5008579;28;20072;-68
2022/03/13 04:11:02;;;;;;;4.88;4.28;;;;;;;20.33;33.87;101572.63;5007443;28;20142;-68
2022/03/13 04:13:28;;;;;;;6.50;4.88;;;;;;;20.37;33.76;101588.00;5007282;28;20066;-67
2022/03/13 04:15:55;;;;;;;5.40;4.25;;;;;;;20.33;33.78;101576.09;5012381;28;20045;-67
2022/03/13 04:18:21;;;;;;;6.30;4.70;;;;;;;20.29;33.66;101569.50;5011955;28;20131;-68
2022/03/13 04:20:47;;;;;;;6.75;4.60;;;;;;;20.25;33.87;101564.69;5012390;28;20033;-67
2022/03/13 04:23:12;;;;;;;5.50;4.40;;;;;;;20.31;33.79;101575.44;4997216;28;20053;-67
2022/03/13 04:25:38;;;;;;;6.07;4.43;;;;;;;20.27;33.84;101562.69;5011064;28;20045;-67
2022/03/13 04:28:04;;;;;;;6.53;4.85;;;;;;;20.31;33.79;101566.69;5011100;28;20097;-68
2022/03/13 04:30:31;;;;;;;5.57;4.50;;;;;;;20.22;33.84;101552.63;5015154;28;20112;-68
2022/03/13 04:32:57;;;;;;;4.85;4.35;;;;;;;20.32;33.82;101571.81;5014606;28;20056;-68
2022/03/13 04:35:24;;;;;;;6.40;4.55;;;;;;;20.28;33.83;101569.63;5012344;28;20048;-68
2022/03/13 04:37:50;;;;;;;5.38;4.47;;;;;;;20.29;33.71;101574.78;5009165;28;20138;-68
2022/03/13 04:40:15;;;;;;;6.05;4.50;;;;;;;20.27;33.76;101576.75;5008165;28;20108;-68
2022/03/13 04:42:41;;;;;;;4.85;4.35;;;;;;;20.29;33.82;101573.94;5026041;28;20053;-68
2022/03/13 04:45:07;;;;;;;6.05;4.68;;;;;;;20.22;33.84;101560.56;5015007;28;20324;-68
2022/03/13 04:47:34;;;;;;;6.25;4.93;;;;;;;20.21;33.87;101567.66;5012480;28;20160;-68
2022/03/13 04:50:00;;;;;;;7.18;5.13;;;;;;;20.24;33.80;101571.78;5010278;28;20041;-68
2022/03/13 04:52:27;;;;;;;6.15;4.68;;;;;;;20.16;33.86;101558.56;5014912;28;20112;-67
2022/03/13 04:54:52;;;;;;;4.88;4.13;;;;;;;20.13;34.00;101562.38;5012691;28;20037;-68
2022/03/13 04:57:19;;;;;;;6.38;4.70;;;;;;;20.14;34.00;101563.22;5007495;28;20365;-68
2022/03/13 04:59:44;;;;;;;5.85;4.50;;;;;;;20.10;33.96;101569.78;5009551;28;20041;-68
2022/03/13 05:02:10;;;;;;;6.22;4.47;;;;;;;20.08;34.10;101567.31;5009899;28;20048;-67
2022/03/13 05:04:37;;;;;;;7.65;4.97;;;;;;;20.01;34.08;101560.22;5012903;28;20537;-68
2022/03/13 05:07:03;;;;;;;6.10;4.85;;;;;;;20.04;34.24;101573.09;5010314;28;20483;-68
2022/03/13 05:09:28;;;;;;;5.28;4.38;;;;;;;19.98;34.13;101565.81;5011183;28;20052;-68
2022/03/13 05:11:54;;;;;;;5.57;4.50;;;;;;;19.97;34.26;101582.69;5005922;28;20025;-68
2022/03/13 05:14:20;;;;;;;5.82;4.75;;;;;;;19.88;34.23;101566.78;5007084;28;20042;-67
2022/03/13 05:16:46;;;;;;;5.95;4.78;;;;;;;19.92;34.06;101581.31;5016518;28;20092;-68
2022/03/13 05:19:11;;;;;;;6.55;4.78;;;;;;;19.86;34.37;101579.34;5014351;28;20793;-68
2022/03/13 05:21:41;;;;;;;6.15;4.82;;;;;;;19.83;34.46;101592.88;5010360;28;20080;-66
2022/03/13 05:24:07;;;;;;;6.82;4.93;;;;;;;19.86;34.58;101589.91;5010837;28;20045;-67
2022/03/13 05:26:33;;;;;;;5.60;4.55;;;;;;;19.82;34.45;101593.88;5011776;28;20049;-68
2022/03/13 05:28:59;;;;;;;5.50;4.53;;;;;;;19.78;34.37;101578.50;5011523;28;20069;-68
2022/03/13 05:31:25;;;;;;;6.25;4.50;;;;;;;19.81;34.20;101592.22;5013876;28;20026;-68
2022/03/13 05:33:50;;;;;;;5.82;4.35;;;;;;;19.83;34.49;101590.25;5009083;28;20048;-67
2022/03/13 05:36:17;;;;;;;6.53;4.90;;;;;;;19.81;34.32;101589.56;5020973;28;20434;-68
2022/03/13 05:38:42;;;;;;;6.15;4.30;;;;;;;19.84;34.30;101594.53;5009673;28;20064;-68
2022/03/13 05:41:09;;;;;;;6.40;4.70;;;;;;;19.74;34.38;101580.63;5008756;28;20042;-68
2022/03/13 05:43:35;;;;;;;6.68;5.20;;;;;;;19.75;34.29;101582.31;5011225;28;20123;-68
2022/03/13 05:46:00;;;;;;;5.15;4.47;;;;;;;19.82;34.29;101595.69;5008303;28;20523;-68
2022/03/13 05:48:26;;;;;;;6.15;5.03;;;;;;;19.80;34.39;101593.22;5009662;28;20154;-67
2022/03/13 05:50:52;;;;;;;9.00;4.53;;;;;;;19.83;34.31;101587.59;5010032;28;20295;-68
2022/03/13 05:53:18;;;;;;;5.20;4.45;;;;;;;19.91;34.25;101598.16;5017819;28;20434;-68
2022/03/13 05:55:44;;;;;;;5.80;4.25;;;;;;;20.17;34.18;101606.00;4998591;28;20037;-67
2022/03/13 05:58:13;;;;;;;6.65;4.53;;;;;;;20.73;33.54;101604.41;5016245;28;20392;-66
2022/03/13 06:00:40;;;;;;;5.53;4.63;;;;;;;21.28;32.77;101602.84;5014355;28;20108;-68
2022/03/13 06:03:06;;;;;;;5.35;4.32;;;;;;;21.63;32.46;101591.75;5013447;28;20204;-66
2022/03/13 06:05:37;;;;;;;6.00;4.55;;;;;;;22.07;31.72;101606.28;5013372;28;20042;-67
2022/03/13 06:08:03;;;;;;;5.78;4.60;;;;;;;21.99;31.90;101594.72;5010784;28;20120;-68
2022/03/13 06:10:29;;;;;;;6.35;4.60;;;;;;;21.96;31.86;101604.84;5015230;28;20045;-67
2022/03/13 06:12:55;;;;;;;6.03;3.97;;;;;;;21.74;32.33;101609.13;5014531;28;20250;-68
2022/03/13 06:15:20;;;;;;;5.40;4.20;;;;;;;21.63;32.34;101615.63;5012156;28;20503;-66
2022/03/13 06:17:48;;;;;;;5.00;4.10;;;;;;;21.41;32.98;101598.66;5014056;28;20141;-67
2022/03/13 06:20:16;;;;;;;5.45;4.32;;;;;;;21.34;33.00;101604.78;5011683;28;20037;-67
2022/03/13 06:22:46;;;;;;;5.60;4.28;;;;;;;21.22;33.14;101601.66;5013582;28;20519;-66
2022/03/13 06:25:13;;;;;;;;;;;;;;;21.10;33.44;101606.50;5010450;28;20218;-67
2022/03/13 06:27:40;;;;;;;5.85;4.30;;;;;;;20.95;33.69;101607.34;5010253;28;19925;-68
2022/03/13 06:30:14;;;;;;;5.78;4.10;;;;;;;20.94;33.82;101617.13;5012852;28;20075;-67
2022/03/13 06:32:53;;;;;;;6.18;4.40;;;;;;;20.96;33.67;101598.41;5015844;28;20061;-68
2022/03/13 06:35:21;;;;;;;5.28;4.28;;;;;;;21.37;33.20;101615.06;5010582;28;20045;-67
2022/03/13 06:37:48;;;;;;;5.13;4.38;;;;;;;21.70;32.86;101607.78;5013357;28;20071;-67
2022/03/13 06:40:17;;;;;;;5.75;4.40;;;;;;;21.88;32.65;101615.50;5010964;28;20477;-66
2022/03/13 06:42:44;;;;;;;;;;;;;;;22.08;32.25;101611.41;5015552;28;20030;-68
2022/03/13 06:45:11;;;;;;;5.72;4.20;;;;;;;22.16;31.89;101611.38;5014018;28;20276;-68
2022/03/13 06:47:44;;;;;;;5.80;4.40;;;;;;;22.04;32.44;101620.69;5014580;28;20041;-68
2022/03/13 06:50:10;;;;;;;6.28;4.25;;;;;;;21.87;32.49;101604.06;5009610;28;20052;-68
2022/03/13 06:52:36;;;;;;;5.88;4.57;;;;;;;21.81;32.64;101617.19;5014703;28;20065;-68
2022/03/13 06:55:04;;;;;;;4.65;3.97;;;;;;;21.70;32.80;101610.44;5011920;28;20125;-67
2022/03/13 06:57:29;;;;;;;5.35;4.20;;;;;;;21.60;32.89;101617.78;5011144;28;20038;-67
2022/03/13 06:59:57;;;;;;;4.75;3.88;;;;;;;21.35;33.21;101612.56;5012261;28;20038;-68
2022/03/13 07:02:23;;;;;;;4.57;4.07;;;;;;;21.35;33.20;101628.47;5012355;28;20364;-68
2022/03/13 07:04:49;;;;;;;5.25;4.25;;;;;;;21.35;33.51;101635.59;5013236;28;20033;-68
2022/03/13 07:07:14;;;;;;;5.85;4.25;;;;;;;21.29;33.46;101633.63;5009720;28;20091;-68
2022/03/13 07:09:40;;;;;;;6.38;4.55;;;;;;;21.22;33.40;101632.63;5010446;28;20392;-68
2022/03/13 07:12:10;;;;;;;6.30;4.70;;;;;;;21.20;33.63;101629.31;5002677;28;20404;-68
2022/03/13 07:14:46;;;;;;;7.72;4.43;;;;;;;21.23;33.49;101635.09;5009568;28;20046;-67
2022/03/13 07:17:13;;;;;;;4.30;3.80;;;;;;;21.11;33.55;101634.63;5011615;28;20083;-68
2022/03/13 07:19:44;;;;;;;5.30;4.00;;;;;;;21.05;33.83;101632.66;5014182;28;20125;-68
2022/03/13 07:22:11;;;;;;;5.28;3.80;;;;;;;21.16;33.79;101639.41;5009569;28;20125;-67
2022/03/13 07:24:37;;;;;;;5.88;4.20;;;;;;;21.41;33.07;101635.75;5010703;28;20495;-66
2022/03/13 07:27:04;;;;;;;5.90;4.30;;;;;;;21.66;32.81;101633.81;5009813;28;20612;-68
2022/03/13 07:29:29;;;;;;;5.32;4.10;;;;;;;21.81;32.70;101627.81;5012753;28;20056;-68
2022/03/13 07:31:56;;;;;;;6.30;4.53;;;;;;;21.86;32.82;101620.97;5014653;28;20072;-68
2022/03/13 07:34:26;;;;;;;5.22;3.97;;;;;;;21.76;32.65;101617.72;5012395;28;20064;-68
2022/03/13 07:36:52;;;;;;;6.38;4.43;;;;;;;21.81;32.63;101639.22;5007309;28;20033;-68
2022/03/13 07:39:19;;;;;;;5.80;4.35;;;;;;;21.68;32.65;101629.16;5011875;28;20038;-68
2022/03/13 07:41:45;;;;;;;5.03;3.97;;;;;;;21.62;33.16;101637.00;5015887;28;20120;-68
2022/03/13 07:44:11;;;;;;;5.20;4.25;;;;;;;21.55;33.33;101642.16;5012038;28;20033;-68
2022/03/13 07:46:37;;;;;;;4.95;3.88;;;;;;;21.53;33.18;101640.66;5013289;28;20413;-67
2022/03/13 07:49:03;;;;;;;5.78;4.03;;;;;;;21.39;33.28;101627.16;5011655;28;20047;-66
2022/03/13 07:51:28;;;;;;;5.72;3.80;;;;;;;21.42;33.23;101633.94;5010661;28;20033;-67
2022/03/13 07:53:54;;;;;;;5.53;4.30;;;;;;;21.39;33.25;101632.44;5012348;28;20729;-68
2022/03/13 07:56:20;;;;;;;4.55;3.95;;;;;;;21.34;33.30;101631.28;5013073;28;20093;-68
2022/03/13 07:58:45;;;;;;;5.95;4.85;;;;;;;21.29;33.51;101636.28;5012902;28;20352;-67
2022/03/13 08:01:11;;;;;;;4.53;3.60;;;;;;;21.24;33.76;101643.88;5014989;28;20498;-68
2022/03/13 08:03:38;;;;;;;4.53;3.70;;;;;;;21.19;33.73;101644.41;5011256;28;20384;-68
2022/03/13 08:06:04;;;;;;;5.03;3.78;;;;;;;21.15;33.89;101637.75;5011352;28;20033;-68
2022/03/13 08:08:30;;;;;;;5.38;3.97;;;;;;;21.15;33.88;101636.94;5013791;28;20440;-68
2022/03/13 08:10:59;;;;;;;4.82;3.78;;;;;;;21.10;33.86;101632.16;5011562;28;20041;-68
2022/03/13 08:13:24;;;;;;;5.93;4.35;;;;;;;21.12;33.92;101638.94;5008368;28;20555;-68
2022/03/13 08:15:50;;;;;;;5.10;4.15;;;;;;;21.12;33.91;101638.09;5006214;28;20061;-68
2022/03/13 08:18:16;;;;;;;5.10;4.20;;;;;;;21.12;33.92;101643.41;5007626;28;20038;-67
2022/03/13 08:20:42;;;;;;;5.78;4.10;;;;;;;21.08;34.14;101637.63;5008060;28;20436;-66
2022/03/13 08:23:07;;;;;;;5.10;3.78;;;;;;;21.07;34.00;101635.97;5011274;28;20099;-68
2022/03/13 08:25:34;;;;;;;5.10;4.00;;;;;;;20.97;33.96;101627.38;5011798;28;20199;-67
2022/03/13 08:28:00;;;;;;;5.35;4.03;;;;;;;21.13;34.07;101639.75;4992761;28;20058;-68
2022/03/13 08:30:25;;;;;;;5.57;4.15;;;;;;;21.27;33.83;101632.97;5007377;28;20037;-66
2022/03/13 08:32:51;;;;;;;5.05;4.07;;;;;;;21.23;33.64;101643.06;5006621;28;20530;-68
2022/03/13 08:35:17;;;;;;;5.57;3.50;;;;;;;21.19;34.00;101647.03;5010448;28;20045;-68
2022/03/13 08:37:44;;;;;;;5.28;3.50;;;;;;;21.09;34.05;101638.44;5013786;28;20072;-68
2022/03/13 08:40:11;;;;;;;5.55;4.20;;;;;;;21.10;33.94;101642.75;5012525;28;20155;-68
2022/03/13 08:42:37;;;;;;;4.80;3.85;;;;;;;21.10;34.11;101640.91;5010907;28;20029;-67
2022/03/13 08:45:04;;;;;;;5.22;3.92;;;;;;;21.10;34.09;101650.69;5010983;28;20515;-68
2022/03/13 08:47:29;;;;;;;5.22;3.85;;;;;;;21.13;33.85;101645.88;5010325;28;20045;-68
2022/03/13 08:49:55;;;;;;;6.93;4.55;;;;;;;21.12;33.86;101643.41;5008244;28;20072;-65
2022/03/13 08:52:22;;;;;;;5.47;3.92;;;;;;;20.98;33.50;101630.84;5010232;28;20695;-66
2022/03/13 08:54:49;;;;;;;6.65;4.70;;;;;;;21.07;33.68;101648.38;5014262;28;20558;-68
2022/03/13 08:57:14;;;;;;;6.57;4.47;;;;;;;20.94;33.70;101627.69;5015942;28;20052;-66
2022/03/13 08:59:41;;;;;;;7.47;4.25;;;;;;;21.00;33.71;101642.91;5016320;28;20041;-68
2022/03/13 09:02:07;;;;;;;6.47;4.28;;;;;;;21.08;33.54;101642.91;5016466;28;20045;-67
2022/03/13 09:04:32;;;;;;;8.77;4.70;;;;;;;21.25;32.93;101640.25;5013216;28;20192;-68
2022/03/13 09:06:58;;;;;;;7.85;4.75;;;;;;;21.44;32.95;101647.00;5015795;28;20052;-66
2022/03/13 09:09:24;;;;;;;6.90;4.75;;;;;;;21.68;32.40;101649.56;5016908;28;20404;-68
2022/03/13 09:11:53;;;;;;;6.70;4.80;;;;;;;21.85;32.06;101643.19;5013346;28;20135;-68
2022/03/13 09:14:19;;;;;;;6.50;4.65;;;;;;;21.83;31.64;101647.00;5016749;28;20110;-67
2022/03/13 09:16:46;;;;;;;6.90;4.85;;;;;;;21.72;31.73;101637.59;5017099;28;20407;-68
2022/03/13 09:19:12;;;;;;;6.93;4.93;;;;;;;21.69;31.70;101628.16;5016284;28;20029;-68
2022/03/13 09:21:40;;;;;;;6.38;4.90;;;;;;;21.64;31.64;101629.69;5012976;28;20386;-67
2022/03/13 09:24:08;;;;;;;6.65;4.55;;;;;;;21.57;32.38;101626.09;5017859;28;20036;-68
2022/03/13 09:26:35;;;;;;;7.18;4.50;;;;;;;21.24;31.99;101588.25;5018313;28;20190;-68
2022/03/13 09:29:04;;;;;;;8.10;5.18;;;;;;;21.44;31.87;101620.50;5016390;28;20049;-68
2022/03/13 09:31:30;;;;;;;5.93;4.40;;;;;;;21.34;32.26;101618.03;5010947;28;20038;-68
2022/03/13 09:33:55;;;;;;;6.80;4.90;;;;;;;21.30;31.98;101616.72;5014302;28;20373;-67
2022/03/13 09:36:21;;;;;;;6.55;4.90;;;;;;;21.26;32.19;101631.31;5018971;28;20110;-67
2022/03/13 09:38:47;;;;;;;7.28;5.13;;;;;;;21.15;32.42;101613.09;5018666;28;20053;-67
2022/03/13 09:41:12;;;;;;;6.05;4.75;;;;;;;21.26;32.28;101610.13;5019617;28;20029;-67
2022/03/13 09:43:39;;;;;;;5.78;4.68;;;;;;;21.49;32.68;101623.47;5018642;28;20701;-68
2022/03/13 09:46:05;;;;;;;5.93;4.70;;;;;;;21.62;32.68;101616.63;5011044;28;20741;-68
2022/03/13 09:48:35;;;;;;;6.45;4.50;;;;;;;21.87;32.43;101619.13;5008443;28;20033;-68
2022/03/13 09:51:04;;;;;;;6.22;4.28;;;;;;;21.84;32.41;101600.94;5010580;28;20029;-68
2022/03/13 09:53:35;;;;;;;7.03;4.65;;;;;;;21.86;32.66;101620.13;5011301;28;20052;-68
2022/03/13 09:56:03;;;;;;;8.35;4.38;;;;;;;21.79;32.31;101603.28;5006230;28;20102;-68
2022/03/13 09:58:30;;;;;;;8.15;5.13;;;;;;;21.70;32.39;101618.41;5009790;28;20125;-67
2022/03/13 10:00:57;;;;;;;7.32;4.88;;;;;;;21.62;32.83;101597.25;5009536;28;20130;-67
2022/03/13 10:03:22;;;;;;;6.40;4.65;;;;;;;21.68;32.89;101604.50;4996910;28;20501;-66
2022/03/13 10:05:50;;;;;;;6.80;4.85;;;;;;;21.69;32.83;101600.84;5010232;28;20040;-67
2022/03/13 10:08:16;;;;;;;8.80;4.55;;;;;;;21.55;32.88;101581.22;5013834;28;20125;-67
2022/03/13 10:10:49;;;;;;;7.35;4.90;;;;;;;21.49;33.04;101594.31;5016097;28;20041;-67
2022/03/13 10:13:31;;;;;;;5.68;4.40;;;;;;;21.48;33.19;101582.06;5016017;28;20510;-67
2022/03/13 10:15:57;;;;;;;6.25;4.40;;;;;;;21.46;33.53;101592.84;5011964;28;20046;-66
2022/03/13 10:18:25;;;;;;;7.60;4.82;;;;;;;21.39;33.53;101583.94;5014763;28;20068;-66
2022/03/13 10:20:53;;;;;;;6.50;4.75;;;;;;;21.36;33.77;101595.72;5012232;28;20034;-66
2022/03/13 10:23:22;;;;;;;7.35;4.68;;;;;;;21.38;33.41;101580.47;5011072;28;20392;-66
2022/03/13 10:25:52;;;;;;;6.95;4.47;;;;;;;21.36;33.52;101576.31;5014095;28;20037;-66
2022/03/13 10:28:19;;;;;;;7.13;4.43;;;;;;;21.36;33.81;101573.66;5011304;28;20053;-66
2022/03/13 10:31:06;;;;;;;7.82;4.63;;;;;;;21.33;33.57;101576.66;5015228;28;20068;-66
2022/03/13 10:33:42;;;;;;;6.03;4.63;;;;;;;21.35;33.79;101574.66;5012155;28;20684;-66
2022/03/13 10:36:37;;;;;;;6.60;4.40;;;;;;;21.29;33.80;101567.41;5015717;28;20124;-66
2022/03/13 10:39:17;;;;;;;6.10;4.55;;;;;;;21.29;33.98;101576.16;5018082;28;20040;-66
2022/03/13 10:41:44;;;;;;;5.22;3.83;;;;;;;21.37;33.57;101567.38;5012937;28;20077;-66
2022/03/13 10:44:22;;;;;;;7.00;4.50;;;;;;;21.55;33.43;101556.53;5017530;28;20413;-66
2022/03/13 10:47:08;;;;;;;6.30;4.30;;;;;;;21.61;33.33;101540.75;5009414;28;20045;-66
2022/03/13 10:49:42;;;;;;;6.20;4.40;;;;;;;21.73;32.89;101557.09;5018834;28;20093;-66
2022/03/13 10:52:36;;;;;;;5.70;3.97;;;;;;;21.69;33.11;101553.94;5012879;28;20745;-66
2022/03/13 10:55:20;;;;;;;6.40;4.43;;;;;;;21.72;32.89;101552.78;5012148;28;20042;-65
2022/03/13 10:57:50;;;;;;;5.72;4.00;;;;;;;21.50;33.22;101522.59;5017972;28;20033;-65
2022/03/13 11:00:16;;;;;;;6.28;4.00;;;;;;;21.57;33.27;101536.00;5012444;28;20361;-66
2022/03/13 11:02:42;;;;;;;5.68;4.07;;;;;;;21.62;33.23;101544.22;5012278;28;20460;-66
2022/03/13 11:05:08;;;;;;;6.50;4.43;;;;;;;21.56;33.65;101544.94;5010655;28;20050;-66
2022/03/13 11:07:34;;;;;;;5.00;3.90;;;;;;;21.43;33.41;101532.25;5015572;28;20045;-66
2022/03/13 11:10:00;;;;;;;7.72;4.25;;;;;;;21.45;33.50;101530.25;5011451;28;20063;-65
2022/03/13 11:12:26;;;;;;;6.00;4.28;;;;;;;21.50;33.59;101538.50;5013393;28;20021;-66
2022/03/13 11:14:58;;;;;;;5.95;3.95;;;;;;;21.48;33.35;101537.00;5011687;28;20037;-66
2022/03/13 11:17:30;;;;;;;4.60;3.67;;;;;;;21.45;33.52;101521.47;5020353;28;20163;-66
2022/03/13 11:19:58;;;;;;;5.97;3.65;;;;;;;21.48;33.51;101529.88;5017254;28;20033;-66
2022/03/13 11:22:25;;;;;;;5.03;3.60;;;;;;;21.46;33.62;101539.00;5016404;28;20829;-66
2022/03/13 11:24:54;;;;;;;5.70;4.00;;;;;;;21.49;33.34;101528.06;5013328;28;20812;-66
2022/03/13 11:27:21;;;;;;;5.63;4.05;;;;;;;21.47;33.68;101520.28;5011812;28;20058;-66